Weather at Lindøye Seaplane Base [CLOSED]

Public forecast

Using degrees Celsius for public forecast. Weather courtesy of forecast.io.

Closest aviation weather report (METAR) to Lindøye Seaplane Base

Report is more than 2 hours old.

Closest report is Oslo, Fornebu Airport, 3.1 nm (5.7 km) W. Retrieved 2021/04/11 21:20 UTC (2 hours ago):

ENFB 112120Z AUTO 02022KT 9999NDV SCT029/// ///// Q//// W///S5

Closest aviation forecast (TAF) to Lindøye Seaplane Base

Closest forecast is Oslo Gardermoen Airport, 21.5 nm (39.8 km) NNE. Retrieved 2021/04/11 18:59 UTC (5 hours ago):

TAF ENGM 111700Z 1118/1218 04012KT 8000 -RASN SCT012 BKN018 TEMPO 1120/1215 2000 -SN VV008 TEMPO 1215/1218 1200 SHSN BKN008 FEW020CB